createdAt,value
2023-04-30T00:00:01.863Z,57.72953755496545
2023-04-30T00:15:02.451Z,56.64355114930273
2023-04-30T00:30:02.178Z,56.830010633135615
2023-04-30T00:45:01.857Z,58.16622021274817
2023-04-30T01:00:02.495Z,59.94672465440048
2023-04-30T01:15:02.092Z,60.53325365313529
2023-04-30T01:30:01.884Z,60.32028878790364
2023-04-30T01:45:01.547Z,60.00390472520888
2023-04-30T02:00:02.147Z,60.21201092279823
2023-04-30T02:15:01.807Z,58.38559275647083
2023-04-30T02:30:02.475Z,58.225821064846414
2023-04-30T02:45:02.117Z,58.0181408184335
2023-04-30T03:00:01.707Z,57.9196732445469
2023-04-30T03:15:02.340Z,57.87384609157891
2023-04-30T03:30:02.000Z,57.893722721694665
2023-04-30T03:45:01.599Z,57.81549735792128
2023-04-30T04:00:02.262Z,57.95044929850389
2023-04-30T04:15:01.845Z,58.34100172351549
2023-04-30T04:30:02.138Z,62.47727968753677
2023-04-30T04:45:01.787Z,59.719710776125815
2023-04-30T05:00:02.450Z,58.860896614209985
2023-04-30T05:15:02.039Z,58.531118212820836
2023-04-30T05:30:01.667Z,58.44576176120957
2023-04-30T05:45:02.245Z,58.13519783979764
2023-04-30T06:00:01.851Z,59.17671407290853
2023-04-30T06:15:02.448Z,59.63668255755495
2023-04-30T06:30:02.107Z,60.15111706891294
2023-04-30T06:45:01.782Z,60.331241526495226
2023-04-30T07:00:02.457Z,60.623697226387925
2023-04-30T07:15:02.154Z,60.795381914978684
2023-04-30T07:30:01.820Z,60.67121148775044
2023-04-30T07:45:02.466Z,60.3216155898188
2023-04-30T08:00:02.099Z,59.65718553417492
2023-04-30T08:15:01.735Z,58.69748873746796
2023-04-30T08:30:02.471Z,57.75914921100403
2023-04-30T08:45:02.080Z,56.5837670885963
2023-04-30T09:00:01.748Z,55.68001969761394
2023-04-30T09:15:02.476Z,56.07617058653301
2023-04-30T09:30:02.155Z,54.81552889696554
2023-04-30T09:45:01.769Z,54.57623742998319
2023-04-30T10:00:02.447Z,52.91093458318101
2023-04-30T10:15:02.010Z,52.10779400679223
2023-04-30T10:30:01.630Z,51.530827852681256
2023-04-30T10:45:02.241Z,47.95665051699821
2023-04-30T11:00:01.862Z,48.206330243475385
2023-04-30T11:15:02.534Z,47.72048373397865
2023-04-30T11:30:02.210Z,46.81478611477568
2023-04-30T11:45:01.789Z,45.897784491751445
2023-04-30T12:00:02.431Z,43.12256278831383
2023-04-30T12:15:01.999Z,44.115615273250725
2023-04-30T12:30:01.656Z,42.26262530245157
2023-04-30T12:45:02.231Z,41.50430102982782
2023-04-30T13:00:01.921Z,42.71317198994932
2023-04-30T13:15:02.557Z,41.69735510169959
2023-04-30T13:30:02.192Z,42.066505136291795
2023-04-30T13:45:01.865Z,42.453773105361094
2023-04-30T14:00:02.686Z,42.08049213914888
2023-04-30T14:15:02.325Z,41.21472281483244
2023-04-30T14:30:02.013Z,41.56061255687991
2023-04-30T14:45:01.659Z,42.4634740799972
2023-04-30T15:00:02.368Z,41.06865834231696
2023-04-30T15:15:01.987Z,40.3649641248339
2023-04-30T15:30:01.717Z,40.705076887998494
2023-04-30T15:45:02.334Z,40.67572823048978
2023-04-30T16:00:01.967Z,40.01226839888698
2023-04-30T16:15:01.602Z,39.166763664947766
2023-04-30T16:30:02.306Z,41.2743082254435
2023-04-30T16:45:01.918Z,37.368499938266226
2023-04-30T17:00:02.518Z,42.2422742951867
2023-04-30T17:15:02.122Z,40.6698303275851
2023-04-30T17:30:01.744Z,40.933809947027505
2023-04-30T17:45:02.401Z,41.08015335197123
2023-04-30T18:00:02.058Z,43.005293160907804
2023-04-30T18:15:01.648Z,40.81630960990464
2023-04-30T18:30:02.256Z,43.20671732105856
2023-04-30T18:45:01.901Z,43.729272881316746
2023-04-30T19:00:02.532Z,42.21004528018355
2023-04-30T19:15:02.111Z,44.589915902990136
2023-04-30T19:30:01.827Z,44.32958771763945
2023-04-30T19:45:02.485Z,44.0349442009929
2023-04-30T20:00:02.113Z,45.26134399285615
2023-04-30T20:15:01.743Z,46.32273100503721
2023-04-30T20:30:02.414Z,46.53146089821277
2023-04-30T20:45:04.612Z,46.84383811223274
2023-04-30T21:00:02.244Z,46.95469868809849
2023-04-30T21:15:01.912Z,46.972006465538755
2023-04-30T21:30:01.669Z,47.59508886404382
2023-04-30T21:45:02.353Z,47.59656529322473
2023-04-30T22:00:01.958Z,47.74654811527207
2023-04-30T22:15:01.605Z,48.138274486283876
2023-04-30T22:30:02.314Z,48.46100639252727
2023-04-30T22:45:01.974Z,48.60512208096867
2023-04-30T23:00:01.649Z,48.96695268294023
2023-04-30T23:15:02.219Z,50.293393395909646
2023-04-30T23:30:01.849Z,50.56158458147196
2023-04-30T23:45:02.487Z,50.50299663646586
